Time;durP1;ratioP1;P1;durP2;ratioP2;P2;SDS_P1;SDS_P2;PMS_P1;PMS_P2;Temp;Humidity;BMP_temperature;BMP_pressure;BME280_temperature;BME280_humidity;BME280_pressure;Samples;Min_cycle;Max_cycle;Signal;HPM_P1;HPM_P2
2022/06/15 00:00:06;;;;;;;5.57;2.90;;;;;;;18.90;55.79;95206.34;5075252;28;20455;-82
2022/06/15 00:02:33;;;;;;;16.30;3.50;;;;;;;18.92;55.92;95201.69;5075134;28;20444;-82
2022/06/15 00:05:01;;;;;;;6.63;3.57;;;;;;;18.94;55.16;95198.84;5075488;28;20445;-82
2022/06/15 00:07:28;;;;;;;3.73;3.43;;;;;;;18.96;56.47;95204.81;5075089;28;20445;-83
2022/06/15 00:09:55;;;;;;;4.40;3.20;;;;;;;18.89;54.13;95202.03;5074716;28;20958;-82
2022/06/15 00:12:22;;;;;;;5.10;3.47;;;;;;;18.93;54.76;95195.34;5075251;28;20448;-82
2022/06/15 00:14:49;;;;;;;4.37;3.60;;;;;;;18.96;54.49;95196.84;5075036;28;20437;-83
2022/06/15 00:17:16;;;;;;;3.00;2.80;;;;;;;18.96;54.32;95192.34;5075235;28;20463;-83
2022/06/15 00:19:43;;;;;;;3.93;3.60;;;;;;;18.94;55.35;95194.34;5074469;28;20810;-83
2022/06/15 00:22:12;;;;;;;3.80;3.40;;;;;;;18.94;54.11;95193.53;5074906;28;20466;-82
2022/06/15 00:24:39;;;;;;;5.60;3.20;;;;;;;18.84;53.52;95183.13;5074412;28;20449;-83
2022/06/15 00:27:08;;;;;;;6.63;3.43;;;;;;;18.83;53.68;95190.25;5039193;28;20445;-83
2022/06/15 00:29:37;;;;;;;3.23;2.93;;;;;;;18.83;54.16;95184.94;5074453;28;20449;-83
2022/06/15 00:32:05;;;;;;;3.10;2.80;;;;;;;18.86;53.87;95186.41;5074633;28;20488;-82
2022/06/15 00:34:32;;;;;;;7.50;3.27;;;;;;;18.90;53.92;95182.41;5074467;28;20448;-82
2022/06/15 00:37:00;;;;;;;6.27;3.40;;;;;;;18.90;54.13;95190.38;5073980;28;20973;-83
2022/06/15 00:39:29;;;;;;;7.87;2.80;;;;;;;18.90;54.28;95181.59;5074640;28;20437;-83
2022/06/15 00:41:56;;;;;;;5.53;2.87;;;;;;;18.86;53.95;95189.09;5039466;28;20513;-83
2022/06/15 00:44:34;;;;;;;4.83;3.40;;;;;;;18.83;53.77;95184.94;5039274;28;20448;-83
2022/06/15 00:47:03;;;;;;;4.40;3.30;;;;;;;18.81;53.68;95197.59;5074491;28;20520;-83
2022/06/15 00:49:33;;;;;;;5.50;3.20;;;;;;;18.83;53.36;95192.91;5074574;28;20443;-83
2022/06/15 00:52:04;;;;;;;4.20;2.90;;;;;;;18.89;53.45;95194.06;5073718;28;20480;-83
2022/06/15 00:54:32;;;;;;;5.37;3.50;;;;;;;18.87;54.06;95196.06;5074053;28;20451;-83
2022/06/15 00:56:59;;;;;;;3.03;2.73;;;;;;;18.88;53.47;95198.53;5074095;28;20449;-83
2022/06/15 00:59:32;;;;;;;3.20;2.97;;;;;;;18.84;52.88;95202.56;5073868;28;20456;-83
2022/06/15 01:01:59;;;;;;;5.27;3.30;;;;;;;18.84;53.10;95201.72;5073602;28;20928;-83
2022/06/15 01:04:31;;;;;;;3.30;3.00;;;;;;;18.94;53.72;95209.47;5073700;28;20442;-83
2022/06/15 01:07:05;;;;;;;5.20;2.90;;;;;;;18.85;53.11;95209.53;5073788;28;20939;-83
2022/06/15 01:09:39;;;;;;;5.37;3.03;;;;;;;18.92;52.81;95212.31;5074012;28;20472;-83
2022/06/15 01:12:16;;;;;;;5.27;3.00;;;;;;;19.02;52.96;95212.09;5073700;28;20493;-83
2022/06/15 01:15:17;;;;;;;4.33;2.67;;;;;;;19.03;52.06;95208.44;5073933;28;20449;-83
2022/06/15 01:18:09;;;;;;;4.57;3.40;;;;;;;19.04;52.50;95207.44;5073618;28;20940;-83
2022/06/15 01:20:56;;;;;;;4.07;2.80;;;;;;;19.00;52.00;95209.59;5073351;28;20430;-83
2022/06/15 01:24:03;;;;;;;7.33;3.17;;;;;;;19.00;52.25;95208.78;5011381;28;20844;-83
2022/06/15 01:27:11;;;;;;;5.93;3.07;;;;;;;18.96;52.65;95208.31;5011809;28;20440;-83
2022/06/15 01:30:06;;;;;;;3.67;2.77;;;;;;;18.85;52.24;95208.69;4972392;28;21050;-82
2022/06/15 01:32:43;;;;;;;4.00;3.00;;;;;;;18.83;52.61;95208.03;4972286;28;20488;-83
2022/06/15 01:35:15;;;;;;;5.23;3.67;;;;;;;18.85;52.94;95203.38;4972075;28;20462;-83
2022/06/15 01:37:52;;;;;;;7.53;2.87;;;;;;;18.84;52.32;95205.22;4972076;28;20571;-83
2022/06/15 01:40:26;;;;;;;4.17;2.77;;;;;;;18.86;52.52;95208.53;4972195;28;20453;-83
2022/06/15 01:42:57;;;;;;;7.77;3.00;;;;;;;18.82;52.06;95204.56;4972235;28;20449;-83
2022/06/15 01:45:27;;;;;;;5.40;3.13;;;;;;;18.82;52.65;95215.19;4940415;28;20458;-82
2022/06/15 01:47:59;;;;;;;3.30;2.70;;;;;;;18.90;52.83;95219.63;4971861;28;20524;-83
2022/06/15 01:50:30;;;;;;;6.00;3.80;;;;;;;18.86;52.57;95224.47;4972096;28;20850;-83
2022/06/15 01:53:02;;;;;;;3.70;3.27;;;;;;;18.90;53.01;95221.47;4972229;28;20448;-83
2022/06/15 01:55:34;;;;;;;6.63;4.10;;;;;;;18.86;52.51;95218.34;4972023;28;20449;-83
2022/06/15 01:58:07;;;;;;;2.80;2.60;;;;;;;18.84;53.02;95215.03;4971461;28;20458;-83
2022/06/15 02:00:35;;;;;;;3.83;3.43;;;;;;;18.90;52.82;95211.66;5009812;28;20438;-83
2022/06/15 02:03:12;;;;;;;4.13;3.10;;;;;;;18.89;52.82;95212.66;5050547;28;20434;-83
2022/06/15 02:05:53;;;;;;;3.43;2.93;;;;;;;18.88;52.90;95213.66;5053601;28;20437;-82
2022/06/15 02:08:25;;;;;;;4.43;3.10;;;;;;;18.88;52.87;95219.81;5072524;28;20441;-83
2022/06/15 02:10:58;;;;;;;4.77;3.33;;;;;;;18.88;52.24;95213.66;5072659;28;20492;-83
2022/06/15 02:13:32;;;;;;;7.13;2.80;;;;;;;18.84;52.77;95207.03;5072861;28;20439;-83
2022/06/15 02:16:04;;;;;;;5.23;3.17;;;;;;;18.83;52.50;95221.34;5072572;28;20441;-83
2022/06/15 02:18:34;;;;;;;8.97;3.50;;;;;;;18.88;52.54;95225.13;5072529;28;20528;-83
2022/06/15 02:21:06;;;;;;;6.23;3.27;;;;;;;18.85;52.23;95214.03;5072584;28;20462;-83
2022/06/15 02:23:37;;;;;;;2.80;2.60;;;;;;;18.81;52.26;95218.03;5072333;28;20932;-83
2022/06/15 02:26:06;;;;;;;4.13;2.90;;;;;;;18.74;52.37;95220.53;5072481;28;20446;-83
2022/06/15 02:28:36;;;;;;;3.83;3.30;;;;;;;18.74;52.86;95217.88;5072554;28;20453;-82
2022/06/15 02:31:04;;;;;;;4.20;2.97;;;;;;;18.77;53.54;95214.03;5072656;28;20484;-83
2022/06/15 02:33:34;;;;;;;4.27;3.10;;;;;;;18.70;52.98;95210.41;5072228;28;20908;-82
2022/06/15 02:36:02;;;;;;;4.87;3.30;;;;;;;18.63;52.98;95214.75;5072246;28;20456;-83
2022/06/15 02:38:31;;;;;;;7.00;4.07;;;;;;;18.56;53.20;95218.06;5072088;28;20857;-83
2022/06/15 02:40:58;;;;;;;3.03;2.83;;;;;;;18.54;53.44;95208.63;5072393;28;20452;-82
2022/06/15 02:43:28;;;;;;;4.07;3.00;;;;;;;18.55;53.39;95208.44;5072400;28;20460;-83
2022/06/15 02:45:58;;;;;;;4.93;3.10;;;;;;;18.45;53.53;95212.28;5072308;28;20459;-83
2022/06/15 02:48:25;;;;;;;5.00;3.50;;;;;;;18.42;53.58;95204.66;5072159;28;20452;-83
2022/06/15 02:51:02;;;;;;;8.77;3.10;;;;;;;18.38;53.34;95211.31;5037157;28;20447;-83
2022/06/15 02:53:32;;;;;;;3.57;3.27;;;;;;;18.37;53.83;95210.47;5072350;28;20804;-83
2022/06/15 02:56:00;;;;;;;3.77;3.47;;;;;;;18.34;53.83;95216.13;5072053;28;20814;-83
2022/06/15 02:58:30;;;;;;;4.80;3.03;;;;;;;18.26;54.10;95211.69;5070813;28;20448;-83
2022/06/15 03:00:58;;;;;;;4.23;3.33;;;;;;;18.29;54.17;95218.47;5072176;28;20516;-84
2022/06/15 03:03:26;;;;;;;3.90;3.03;;;;;;;18.32;54.62;95215.47;5072312;28;20437;-83
2022/06/15 03:05:55;;;;;;;6.33;4.17;;;;;;;18.32;54.70;95218.13;5036623;28;20434;-83
2022/06/15 03:08:23;;;;;;;3.57;3.27;;;;;;;18.35;54.30;95211.66;5072004;28;20450;-82
2022/06/15 03:10:50;;;;;;;5.50;3.17;;;;;;;18.41;54.50;95210.97;5075981;28;20488;-83
2022/06/15 03:13:37;;;;;;;5.63;3.40;;;;;;;18.45;55.19;95218.41;5076719;28;20931;-85
2022/06/15 03:16:06;;;;;;;3.73;3.37;;;;;;;18.43;55.28;95214.28;5034838;28;20443;-83
2022/06/15 03:18:33;;;;;;;6.80;3.40;;;;;;;18.36;54.44;95214.13;4986328;28;20442;-82
2022/06/15 03:21:03;;;;;;;7.50;3.23;;;;;;;18.31;54.95;95216.47;5034409;28;20486;-94
2022/06/15 03:23:32;;;;;;;5.90;3.50;;;;;;;18.38;55.29;95217.44;5034582;28;20820;-83
2022/06/15 03:26:01;;;;;;;3.50;3.17;;;;;;;18.48;55.57;95215.41;4983538;28;20459;-83
2022/06/15 03:28:29;;;;;;;9.93;3.13;;;;;;;18.65;55.23;95223.38;5033184;28;20453;-83
2022/06/15 03:30:56;;;;;;;7.40;3.60;;;;;;;18.81;54.70;95228.66;5032346;28;20443;-83
2022/06/15 03:33:23;;;;;;;4.77;3.43;;;;;;;19.06;54.08;95227.53;5036379;28;20452;-82
2022/06/15 03:35:50;;;;;;;5.73;3.80;;;;;;;19.36;55.40;95228.53;5055439;28;20453;-83
2022/06/15 03:38:19;;;;;;;4.27;3.97;;;;;;;19.57;60.22;95230.59;5054999;28;20474;-83
2022/06/15 03:40:47;;;;;;;6.07;4.47;;;;;;;19.61;61.61;95231.91;5063482;28;20467;-83
2022/06/15 03:43:15;;;;;;;4.30;4.00;;;;;;;19.56;62.94;95233.44;5074543;28;20445;-83
2022/06/15 03:45:43;;;;;;;8.73;5.07;;;;;;;19.83;62.83;95234.75;5074802;28;20458;-84
2022/06/15 03:48:10;;;;;;;5.50;4.67;;;;;;;20.09;62.20;95245.84;5075011;28;20536;-83
2022/06/15 03:50:38;;;;;;;7.43;5.27;;;;;;;19.99;62.73;95239.97;5075056;28;20456;-82
2022/06/15 03:53:06;;;;;;;6.20;4.97;;;;;;;19.94;63.74;95240.47;5074703;28;20485;-83
2022/06/15 03:55:36;;;;;;;5.00;4.53;;;;;;;19.92;64.04;95242.47;5075047;28;21106;-83
2022/06/15 03:58:03;;;;;;;12.00;4.70;;;;;;;20.25;63.79;95243.06;5075041;28;20454;-83
2022/06/15 04:00:32;;;;;;;5.83;4.00;;;;;;;20.47;63.53;95251.19;5074924;28;20528;-83
2022/06/15 04:02:59;;;;;;;6.43;5.57;;;;;;;20.76;61.81;95245.06;5074827;28;20444;-83
2022/06/15 04:05:29;;;;;;;7.40;5.50;;;;;;;20.75;61.94;95252.22;5074673;28;20448;-83
2022/06/15 04:10:42;;;;;;;5.17;4.67;;;;;;;21.07;60.82;95255.53;5074869;28;20428;-83
2022/06/15 04:13:09;;;;;;;6.73;5.00;;;;;;;21.24;59.80;95251.69;5074259;28;20839;-83
2022/06/15 04:15:36;;;;;;;5.60;5.13;;;;;;;21.25;60.13;95253.34;5039077;28;20823;-93
2022/06/15 04:18:03;;;;;;;11.00;5.37;;;;;;;21.42;59.00;95256.63;5076310;28;20947;-84
2022/06/15 04:20:33;;;;;;;6.50;5.13;;;;;;;21.49;59.25;95254.84;5074933;28;20441;-84
2022/06/15 04:23:00;;;;;;;7.03;4.80;;;;;;;21.57;59.13;95250.22;5075952;28;20516;-84
2022/06/15 04:25:28;;;;;;;5.43;4.93;;;;;;;21.69;58.97;95247.06;5041049;28;20477;-83
2022/06/15 04:27:56;;;;;;;5.47;5.07;;;;;;;21.87;58.21;95253.59;5075195;28;20449;-83
2022/06/15 04:30:23;;;;;;;9.40;5.20;;;;;;;21.98;57.80;95254.16;5075467;28;20517;-84
2022/06/15 04:32:50;;;;;;;10.90;5.67;;;;;;;21.92;58.10;95264.56;5075459;28;20489;-82
2022/06/15 04:35:17;;;;;;;6.40;5.13;;;;;;;22.00;57.66;95258.28;5075188;28;20441;-82
2022/06/15 04:37:44;;;;;;;7.60;5.63;;;;;;;22.07;57.77;95253.84;5075379;28;20979;-85
2022/06/15 04:40:13;;;;;;;8.30;6.27;;;;;;;22.46;57.13;95266.72;5075176;28;20441;-81
2022/06/15 04:42:41;;;;;;;8.00;4.50;;;;;;;22.95;56.67;95265.00;5039841;28;20437;-82
2022/06/15 04:45:10;;;;;;;10.43;4.93;;;;;;;23.32;54.91;95269.13;5075399;28;20430;-81
2022/06/15 04:47:38;;;;;;;9.30;6.00;;;;;;;23.67;53.55;95267.22;5075266;28;20440;-81
2022/06/15 04:50:07;;;;;;;5.83;4.57;;;;;;;24.04;53.28;95269.38;5074829;28;20524;-82
2022/06/15 04:52:35;;;;;;;7.73;4.77;;;;;;;24.27;52.01;95258.25;5074583;28;20764;-85
2022/06/15 04:55:01;;;;;;;5.17;4.77;;;;;;;24.41;51.21;95264.47;5074677;28;20805;-82
2022/06/15 04:57:28;;;;;;;6.53;4.50;;;;;;;24.45;48.76;95272.94;5074926;28;20463;-82
2022/06/15 04:59:55;;;;;;;7.07;4.60;;;;;;;24.40;48.13;95276.25;5074767;28;20440;-81
2022/06/15 05:02:23;;;;;;;9.20;4.63;;;;;;;24.40;48.84;95278.94;5074492;28;20429;-82
2022/06/15 05:04:50;;;;;;;4.77;4.30;;;;;;;24.24;48.99;95280.13;5074726;28;20450;-81
2022/06/15 05:07:17;;;;;;;6.10;4.77;;;;;;;24.50;48.80;95279.34;5074870;28;20434;-82
2022/06/15 05:09:47;;;;;;;6.07;5.00;;;;;;;24.54;48.05;95285.94;5074491;28;20447;-81
2022/06/15 05:12:14;;;;;;;5.43;4.30;;;;;;;24.47;47.52;95277.06;5073786;28;20494;-83
2022/06/15 05:14:41;;;;;;;4.33;4.03;;;;;;;24.66;47.81;95278.94;5073742;28;21017;-82
2022/06/15 05:17:08;;;;;;;4.57;4.10;;;;;;;24.82;46.64;95276.84;5073876;28;20457;-82
2022/06/15 05:19:36;;;;;;;6.63;4.63;;;;;;;25.04;46.01;95285.50;5073551;28;20880;-82
2022/06/15 05:22:03;;;;;;;9.13;5.30;;;;;;;25.35;45.15;95285.63;5038351;28;20476;-82
2022/06/15 05:24:30;;;;;;;7.00;4.23;;;;;;;25.58;45.49;95277.91;5038474;28;20866;-82
2022/06/15 05:26:57;;;;;;;11.43;4.53;;;;;;;25.96;44.52;95287.03;5073846;28;20452;-82
2022/06/15 05:29:25;;;;;;;6.57;4.30;;;;;;;26.13;44.32;95280.13;5073167;28;20978;-82
2022/06/15 05:31:52;;;;;;;8.90;4.27;;;;;;;26.41;43.61;95285.16;5038074;28;20481;-82
2022/06/15 05:34:18;;;;;;;5.97;4.03;;;;;;;26.63;43.34;95286.41;5073246;28;20446;-82
2022/06/15 05:36:47;;;;;;;9.63;5.10;;;;;;;26.68;41.80;95283.06;5037748;28;20822;-82
2022/06/15 05:39:14;;;;;;;13.80;4.40;;;;;;;26.78;41.47;95283.38;5073399;28;20437;-82
2022/06/15 05:41:41;;;;;;;13.03;4.77;;;;;;;26.76;40.97;95283.59;5073295;28;20445;-81
2022/06/15 05:44:09;;;;;;;5.30;3.80;;;;;;;26.34;40.40;95276.31;5037919;28;21029;-82
2022/06/15 05:46:39;;;;;;;5.73;3.50;;;;;;;26.10;40.97;95286.78;5073734;28;20449;-82
2022/06/15 05:49:07;;;;;;;11.03;3.60;;;;;;;25.79;40.73;95281.38;5037804;28;20429;-82
2022/06/15 05:51:34;;;;;;;11.60;4.43;;;;;;;25.55;40.52;95275.66;5073120;28;20444;-81
2022/06/15 05:54:02;;;;;;;6.87;5.00;;;;;;;25.30;42.40;95286.28;5072915;28;20448;-82
2022/06/15 05:56:33;;;;;;;9.23;3.80;;;;;;;25.33;42.35;95282.34;5073306;28;20826;-82
2022/06/15 05:59:00;;;;;;;3.70;3.40;;;;;;;25.37;42.95;95288.09;5073467;28;20755;-82
2022/06/15 06:01:29;;;;;;;4.57;3.73;;;;;;;24.84;41.89;95286.31;5072960;28;20876;-82
2022/06/15 06:03:56;;;;;;;5.03;3.43;;;;;;;24.87;42.15;95283.25;5072769;28;20457;-81
2022/06/15 06:06:24;;;;;;;5.00;3.60;;;;;;;24.88;41.53;95286.75;5072853;28;20441;-83
2022/06/15 06:08:51;;;;;;;5.57;3.90;;;;;;;25.02;41.61;95299.97;5073159;28;20453;-81
2022/06/15 06:11:19;;;;;;;4.83;3.97;;;;;;;24.97;42.20;95286.31;5072965;28;20449;-81
2022/06/15 06:13:46;;;;;;;4.53;4.13;;;;;;;25.41;41.95;95294.69;5072553;28;20485;-81
2022/06/15 06:16:13;;;;;;;4.17;3.50;;;;;;;25.56;40.34;95298.78;5073228;28;20425;-82
2022/06/15 06:18:40;;;;;;;6.93;3.37;;;;;;;25.64;40.33;95292.34;5072692;28;20445;-82
2022/06/15 06:21:08;;;;;;;4.53;3.30;;;;;;;25.66;40.79;95301.03;5073045;28;20445;-81
2022/06/15 06:23:36;;;;;;;4.87;3.27;;;;;;;25.71;40.32;95295.84;5072806;28;20434;-82
2022/06/15 06:26:05;;;;;;;4.10;3.30;;;;;;;25.68;42.12;95304.34;5073017;28;20914;-82
2022/06/15 06:28:38;;;;;;;3.87;3.57;;;;;;;25.59;39.97;95300.22;5072564;28;20429;-82
2022/06/15 06:31:06;;;;;;;3.63;3.33;;;;;;;25.74;39.86;95289.25;5072326;28;20442;-81
2022/06/15 06:33:35;;;;;;;4.00;3.70;;;;;;;25.83;40.53;95296.84;5072744;28;20485;-81
2022/06/15 06:36:06;;;;;;;6.37;3.57;;;;;;;26.06;40.29;95290.94;5072711;28;20468;-82
2022/06/15 06:38:33;;;;;;;14.30;3.43;;;;;;;26.27;39.74;95295.13;5072433;28;20465;-81
2022/06/15 06:41:01;;;;;;;8.20;3.80;;;;;;;26.09;39.71;95289.69;5072689;28;20456;-81
2022/06/15 06:43:28;;;;;;;6.70;3.70;;;;;;;26.01;40.42;95287.22;5073702;28;20471;-81
2022/06/15 06:45:56;;;;;;;3.60;3.40;;;;;;;25.99;39.44;95283.91;5076475;28;20441;-82
2022/06/15 06:48:23;;;;;;;9.27;3.80;;;;;;;25.81;40.05;95290.84;5076272;28;20952;-82
2022/06/15 06:50:53;;;;;;;8.00;3.73;;;;;;;25.84;41.36;95286.91;5041397;28;20460;-82
2022/06/15 06:53:20;;;;;;;5.80;3.53;;;;;;;25.72;40.03;95286.75;5076468;28;20473;-81
2022/06/15 06:55:47;;;;;;;6.20;3.40;;;;;;;25.62;39.86;95283.66;5076666;28;20908;-81
2022/06/15 06:58:13;;;;;;;4.00;3.40;;;;;;;25.88;38.89;95283.56;5076124;28;20818;-81
2022/06/15 07:00:40;;;;;;;4.60;3.57;;;;;;;25.81;38.90;95293.56;5076323;28;20456;-81
2022/06/15 07:03:10;;;;;;;4.47;3.80;;;;;;;25.52;39.82;95288.69;5076159;28;20459;-81
2022/06/15 07:05:37;;;;;;;9.30;4.00;;;;;;;25.52;40.22;95283.31;5076318;28;20511;-81
2022/06/15 07:08:05;;;;;;;4.87;3.50;;;;;;;25.59;40.63;95284.09;5076267;28;20437;-82
2022/06/15 07:10:32;;;;;;;5.73;3.77;;;;;;;25.75;40.42;95294.41;5040473;28;20950;-82
2022/06/15 07:12:59;;;;;;;7.27;3.40;;;;;;;26.17;40.21;95278.66;5076107;28;20479;-82
2022/06/15 07:15:29;;;;;;;6.63;3.37;;;;;;;25.97;39.70;95286.00;5075841;28;20931;-83
2022/06/15 07:18:01;;;;;;;4.07;3.20;;;;;;;26.10;40.32;95285.94;5075962;28;20481;-82
2022/06/15 07:20:31;;;;;;;3.93;3.63;;;;;;;26.36;39.35;95288.50;5075502;28;20844;-82
2022/06/15 07:22:58;;;;;;;4.33;3.43;;;;;;;26.61;39.50;95293.91;5076201;28;20445;-82
2022/06/15 07:25:25;;;;;;;4.73;3.53;;;;;;;26.93;38.63;95291.13;5075907;28;20437;-82
2022/06/15 07:27:52;;;;;;;3.60;3.40;;;;;;;26.98;37.88;95293.97;5075555;28;20516;-82
2022/06/15 07:30:27;;;;;;;4.00;3.33;;;;;;;26.92;38.60;95287.63;5075351;28;20460;-82
2022/06/15 07:32:54;;;;;;;4.63;3.30;;;;;;;26.59;37.99;95292.44;5075619;28;20559;-81
2022/06/15 07:35:23;;;;;;;4.73;2.90;;;;;;;26.09;38.85;95285.13;5075458;28;20449;-83
2022/06/15 07:37:52;;;;;;;6.17;3.00;;;;;;;25.85;40.25;95289.38;5075603;28;20475;-82
2022/06/15 07:40:20;;;;;;;3.77;3.47;;;;;;;25.93;41.18;95283.75;5075462;28;20448;-81
2022/06/15 07:42:49;;;;;;;6.47;3.50;;;;;;;26.06;41.41;95277.50;5039978;28;20443;-82
2022/06/15 07:45:18;;;;;;;5.10;3.60;;;;;;;26.40;39.63;95286.19;5075120;28;20441;-82
2022/06/15 07:50:30;;;;;;;3.87;3.47;;;;;;;26.32;41.15;95289.94;5075239;28;20432;-82
2022/06/15 07:52:58;;;;;;;10.37;3.60;;;;;;;26.55;40.39;95289.38;5075303;28;20503;-81
2022/06/15 07:55:28;;;;;;;10.00;3.70;;;;;;;26.59;39.36;95292.44;5074572;28;20467;-82
2022/06/15 07:57:55;;;;;;;6.40;3.47;;;;;;;26.72;38.84;95292.34;5075038;28;20927;-82
2022/06/15 08:00:23;;;;;;;3.03;2.50;;;;;;;26.49;39.11;95280.31;5074863;28;20452;-82
2022/06/15 08:02:51;;;;;;;3.53;3.23;;;;;;;26.50;39.67;95283.81;5074866;28;20503;-82
2022/06/15 08:05:19;;;;;;;4.10;3.30;;;;;;;26.20;39.27;95286.28;5075443;28;20950;-82
2022/06/15 08:07:49;;;;;;;5.40;2.90;;;;;;;25.63;40.37;95290.69;5039676;28;20520;-82
2022/06/15 08:10:20;;;;;;;3.43;3.10;;;;;;;25.78;41.24;95288.59;5074916;28;20448;-82
2022/06/15 08:12:47;;;;;;;4.63;3.47;;;;;;;25.72;40.65;95294.00;5074668;28;20481;-82
2022/06/15 08:15:14;;;;;;;6.40;3.30;;;;;;;25.73;42.09;95285.72;5056035;28;20951;-82
2022/06/15 08:17:45;;;;;;;8.50;3.70;;;;;;;25.59;41.42;95287.63;5074831;28;20445;-82
2022/06/15 08:20:17;;;;;;;5.73;4.43;;;;;;;25.72;41.91;95288.59;5040078;28;20441;-82
2022/06/15 08:22:48;;;;;;;5.70;3.70;;;;;;;25.81;40.84;95290.03;5074611;28;20448;-82
2022/06/15 08:25:19;;;;;;;4.23;2.90;;;;;;;25.85;40.13;95286.69;5074550;28;20449;-82
2022/06/15 08:27:46;;;;;;;7.17;3.53;;;;;;;26.12;40.52;95294.63;5074770;28;20452;-83
2022/06/15 08:30:15;;;;;;;6.17;3.70;;;;;;;26.06;40.28;95290.13;5039410;28;20449;-82
2022/06/15 08:32:43;;;;;;;4.60;2.93;;;;;;;25.79;40.23;95287.56;5074315;28;20959;-82
2022/06/15 08:35:10;;;;;;;10.73;3.53;;;;;;;25.63;41.32;95285.31;5074633;28;20941;-82
2022/06/15 08:37:37;;;;;;;3.97;3.20;;;;;;;25.81;41.23;95290.03;5074094;28;20487;-82
2022/06/15 08:40:05;;;;;;;3.07;2.87;;;;;;;25.82;40.38;95295.19;5074635;28;20818;-82
2022/06/15 08:42:42;;;;;;;4.10;3.77;;;;;;;25.93;40.24;95286.44;5074350;28;20453;-83
2022/06/15 08:45:19;;;;;;;3.27;3.07;;;;;;;25.98;40.45;95290.34;5074614;28;20447;-83
2022/06/15 08:48:11;;;;;;;6.07;4.07;;;;;;;25.66;39.27;95286.75;5074111;28;20461;-83
2022/06/15 08:50:44;;;;;;;4.53;3.00;;;;;;;25.74;40.20;95287.38;5074399;28;20464;-82
2022/06/15 08:53:15;;;;;;;3.30;3.00;;;;;;;25.32;38.94;95286.06;5040441;28;20484;-83
2022/06/15 08:55:46;;;;;;;7.13;3.50;;;;;;;25.36;40.23;95289.97;5038909;28;20433;-82
2022/06/15 08:58:22;;;;;;;5.87;3.03;;;;;;;25.37;41.10;95290.78;5074237;28;20579;-82
2022/06/15 09:00:52;;;;;;;3.30;3.00;;;;;;;25.57;38.83;95287.00;5073819;28;20445;-82
2022/06/15 09:03:25;;;;;;;3.80;3.00;;;;;;;25.43;39.29;95296.13;5073814;28;20545;-81
2022/06/15 09:06:03;;;;;;;9.17;3.30;;;;;;;25.38;39.28;95287.91;5073763;28;20437;-82
2022/06/15 09:08:48;;;;;;;4.23;3.23;;;;;;;25.39;39.40;95294.09;5073473;28;20666;-83
2022/06/15 09:11:27;;;;;;;4.30;3.40;;;;;;;25.22;40.46;95289.19;5073989;28;20441;-83
2022/06/15 09:14:11;;;;;;;9.57;3.43;;;;;;;25.47;39.07;95299.25;5073712;28;20485;-83
2022/06/15 09:16:42;;;;;;;3.73;3.43;;;;;;;25.47;40.13;95292.00;5074241;28;20471;-82
2022/06/15 09:19:15;;;;;;;4.90;3.10;;;;;;;25.39;40.92;95294.09;5073386;28;20455;-83
2022/06/15 09:21:47;;;;;;;3.30;2.93;;;;;;;25.58;41.40;95277.06;5073799;28;20445;-82
2022/06/15 09:24:18;;;;;;;6.23;3.70;;;;;;;25.74;40.80;95291.94;5073550;28;20445;-82
2022/06/15 09:26:49;;;;;;;3.33;3.00;;;;;;;25.94;41.06;95288.09;5073080;28;20438;-82
2022/06/15 09:29:23;;;;;;;7.77;3.70;;;;;;;26.04;40.18;95289.50;5037945;28;20434;-82
2022/06/15 09:31:56;;;;;;;3.47;3.17;;;;;;;26.17;39.80;95289.41;5073488;28;20441;-82
2022/06/15 09:34:28;;;;;;;3.93;3.53;;;;;;;26.25;40.73;95279.19;5073216;28;20488;-83
2022/06/15 09:36:58;;;;;;;4.13;3.60;;;;;;;26.32;39.69;95287.25;5073183;28;20460;-83
2022/06/15 09:39:27;;;;;;;3.43;3.20;;;;;;;26.37;39.72;95289.31;5038842;28;20448;-82
2022/06/15 09:42:15;;;;;;;4.63;3.20;;;;;;;26.29;40.64;95290.34;5072969;28;20868;-82
2022/06/15 09:44:53;;;;;;;4.40;3.60;;;;;;;26.09;39.91;95295.88;5073152;28;20437;-82
2022/06/15 09:47:42;;;;;;;4.40;4.00;;;;;;;25.98;39.35;95293.84;5072925;28;20456;-82
2022/06/15 09:50:22;;;;;;;7.43;4.43;;;;;;;25.87;40.25;95281.09;5073064;28;20822;-83
2022/06/15 09:53:04;;;;;;;9.13;3.80;;;;;;;25.79;41.92;95284.06;5072779;28;20441;-82
2022/06/15 09:55:38;;;;;;;3.80;3.50;;;;;;;25.53;41.01;95279.59;5073220;28;20452;-83
2022/06/15 09:58:09;;;;;;;3.37;3.07;;;;;;;25.48;40.63;95280.22;5073278;28;20487;-82
2022/06/15 10:00:38;;;;;;;6.63;3.53;;;;;;;25.29;41.28;95275.75;5073161;28;20813;-83
2022/06/15 10:03:07;;;;;;;4.03;3.63;;;;;;;25.29;42.25;95273.88;5072931;28;20442;-83
2022/06/15 10:05:39;;;;;;;4.73;3.63;;;;;;;25.21;41.85;95275.97;5037227;28;20452;-82
2022/06/15 10:08:09;;;;;;;8.83;3.57;;;;;;;25.13;43.43;95268.94;5072873;28;20462;-82
2022/06/15 10:10:42;;;;;;;6.73;3.73;;;;;;;25.05;43.60;95274.56;5072634;28;21215;-84
2022/06/15 10:13:27;;;;;;;3.57;3.27;;;;;;;25.13;42.22;95273.50;5072725;28;20448;-83
2022/06/15 10:15:58;;;;;;;3.30;3.10;;;;;;;25.17;42.72;95275.56;5072816;28;20473;-82
2022/06/15 10:18:32;;;;;;;5.93;4.40;;;;;;;25.23;42.73;95276.59;5072698;28;20453;-82
2022/06/15 10:21:10;;;;;;;3.93;3.63;;;;;;;25.21;42.03;95265.22;5072730;28;20445;-82
2022/06/15 10:23:51;;;;;;;6.90;3.70;;;;;;;25.22;42.24;95278.44;5072625;28;20429;-83
2022/06/15 10:26:41;;;;;;;9.80;4.10;;;;;;;25.05;41.14;95271.88;5072360;28;20946;-82
2022/06/15 10:29:30;;;;;;;4.13;3.50;;;;;;;25.04;40.36;95269.41;4990945;28;20454;-83
2022/06/15 10:32:17;;;;;;;4.47;4.03;;;;;;;25.21;41.32;95276.81;4990873;28;20452;-82
2022/06/15 10:34:57;;;;;;;6.30;4.17;;;;;;;25.37;42.34;95269.28;4947013;28;20491;-82
2022/06/15 10:37:30;;;;;;;3.63;3.33;;;;;;;25.44;39.78;95270.09;4990778;28;20487;-82
2022/06/15 10:40:00;;;;;;;4.20;3.30;;;;;;;25.55;40.09;95267.59;4991095;28;20437;-82
2022/06/15 10:42:34;;;;;;;4.33;3.70;;;;;;;25.70;42.28;95264.63;4990921;28;20444;-82
2022/06/15 10:45:06;;;;;;;6.00;3.50;;;;;;;25.78;40.48;95263.59;4943710;28;20998;-82
2022/06/15 10:47:41;;;;;;;6.33;3.83;;;;;;;25.90;40.48;95254.59;4958520;28;20545;-82
2022/06/15 10:50:21;;;;;;;7.17;3.50;;;;;;;25.87;40.64;95255.03;4990902;28;20441;-82
2022/06/15 10:52:54;;;;;;;3.90;3.60;;;;;;;25.77;41.97;95253.88;4990733;28;20802;-82
2022/06/15 11:04:19;;;;;;;3.77;3.47;;;;;;;26.08;37.72;95250.38;4876338;29;20478;-83
2022/06/15 11:06:50;;;;;;;3.77;3.43;;;;;;;26.00;38.91;95243.38;4934812;29;20447;-83
2022/06/15 11:09:24;;;;;;;6.97;3.63;;;;;;;26.16;39.32;95242.84;4951819;29;20820;-82
2022/06/15 11:11:52;;;;;;;5.30;3.43;;;;;;;26.34;38.31;95239.44;4952009;29;20549;-83
2022/06/15 11:14:25;;;;;;;3.70;3.50;;;;;;;26.38;39.88;95247.91;4951742;29;20598;-83
2022/06/15 11:19:53;;;;;;;6.07;4.30;;;;;;;26.24;40.68;95250.66;4951819;29;20934;-83
2022/06/15 11:23:03;;;;;;;4.60;4.20;;;;;;;26.38;40.10;95247.91;4952021;29;20957;-83
2022/06/15 11:25:43;;;;;;;3.40;3.10;;;;;;;26.29;38.81;95244.59;4908287;29;20469;-82
2022/06/15 11:28:18;;;;;;;3.23;2.97;;;;;;;26.33;38.72;95237.78;4913874;29;20470;-82
2022/06/15 11:30:55;;;;;;;3.70;3.40;;;;;;;26.31;38.90;95234.47;4915168;29;20451;-82
2022/06/15 11:33:29;;;;;;;4.90;3.73;;;;;;;26.30;39.67;95235.50;4917153;29;20531;-83
2022/06/15 11:36:07;;;;;;;5.20;3.63;;;;;;;26.39;38.33;95226.16;4929930;28;20491;-83
2022/06/15 11:38:41;;;;;;;8.27;3.07;;;;;;;26.38;37.15;95232.59;5013702;28;20491;-82
2022/06/15 11:41:17;;;;;;;4.63;3.70;;;;;;;26.05;39.51;95223.91;5025725;28;20442;-82
2022/06/15 11:43:46;;;;;;;4.07;3.77;;;;;;;25.98;39.72;95228.47;5033068;28;20447;-83
2022/06/15 11:46:29;;;;;;;4.03;3.63;;;;;;;25.70;38.99;95229.69;5033165;28;20449;-82
2022/06/15 11:49:08;;;;;;;5.40;3.57;;;;;;;25.80;39.79;95222.00;5033199;28;20835;-83
2022/06/15 11:51:51;;;;;;;4.17;3.87;;;;;;;25.88;40.79;95226.28;5033214;28;20443;-83
2022/06/15 11:54:39;;;;;;;3.70;3.40;;;;;;;26.06;41.15;95220.19;5002815;28;20478;-83
2022/06/15 11:57:16;;;;;;;5.30;3.60;;;;;;;26.22;41.66;95219.63;5032848;28;20443;-83
2022/06/15 11:59:51;;;;;;;4.57;3.97;;;;;;;26.35;40.94;95216.88;5033045;28;20493;-82
2022/06/15 12:02:30;;;;;;;4.37;3.73;;;;;;;26.35;41.08;95213.38;5053267;28;20445;-83
2022/06/15 12:05:22;;;;;;;3.97;3.63;;;;;;;26.32;39.44;95211.91;5074950;28;20487;-83
2022/06/15 12:08:00;;;;;;;6.80;4.50;;;;;;;26.41;38.94;95216.00;5075257;28;20446;-83
2022/06/15 12:10:45;;;;;;;7.70;3.43;;;;;;;26.31;39.95;95212.09;5041477;28;20567;-83